Time;durP1;ratioP1;P1;durP2;ratioP2;P2;SDS_P1;SDS_P2;PMS_P1;PMS_P2;Temp;Humidity;BMP_temperature;BMP_pressure;BME280_temperature;BME280_humidity;BME280_pressure;Samples;Min_cycle;Max_cycle;Signal;HPM_P1;HPM_P2
2023/10/07 00:00:56;;;;;;;3.13;1.40;;;20.50;36.10;;;;;;5071811;28;20267;-48
2023/10/07 00:03:23;;;;;;;4.10;2.05;;;20.50;36.00;;;;;;5072779;28;20480;-49
2023/10/07 00:05:50;;;;;;;3.80;1.30;;;20.60;35.90;;;;;;5073618;28;20192;-52
2023/10/07 00:08:19;;;;;;;4.28;2.30;;;20.60;36.10;;;;;;5074081;28;20196;-52
2023/10/07 00:10:47;;;;;;;3.77;1.67;;;20.60;36.10;;;;;;5073128;28;20195;-51
2023/10/07 00:13:13;;;;;;;4.20;2.05;;;20.60;35.80;;;;;;5072587;28;20403;-51
2023/10/07 00:15:43;;;;;;;3.92;2.30;;;20.70;36.10;;;;;;5073333;28;20227;-53
2023/10/07 00:18:13;;;;;;;6.20;2.95;;;20.60;36.10;;;;;;5073776;28;20197;-51
2023/10/07 00:20:55;;;;;;;3.43;2.10;;;20.70;36.70;;;;;;5073514;28;20619;-50
2023/10/07 00:23:22;;;;;;;2.80;1.90;;;20.60;36.40;;;;;;5071599;28;20507;-52
2023/10/07 00:25:50;;;;;;;2.65;1.77;;;20.60;36.70;;;;;;5072679;28;20403;-50
2023/10/07 00:28:35;;;;;;;4.80;2.10;;;20.60;36.40;;;;;;5073399;28;20200;-49
2023/10/07 00:31:02;;;;;;;2.75;1.95;;;20.60;36.40;;;;;;5073622;28;20187;-52
2023/10/07 00:33:30;;;;;;;3.55;2.10;;;20.60;36.50;;;;;;5073270;28;20250;-52
2023/10/07 00:36:02;;;;;;;2.05;1.50;;;20.60;37.00;;;;;;5073130;28;20226;-50
2023/10/07 00:38:37;;;;;;;4.23;1.50;;;20.60;37.00;;;;;;5071581;28;20197;-49
2023/10/07 00:41:04;;;;;;;2.33;1.30;;;20.60;36.80;;;;;;5055737;28;20904;-52
2023/10/07 00:43:30;;;;;;;2.10;1.80;;;20.70;36.80;;;;;;5072245;28;20403;-52
2023/10/07 00:46:48;;;;;;;2.15;1.48;;;20.70;37.00;;;;;;5072330;28;20768;-52
2023/10/07 00:48:49;;;;;;;2.80;1.70;;;20.60;36.90;;;;;;5075086;28;20205;-52
2023/10/07 00:51:24;;;;;;;2.80;1.07;;;20.60;36.90;;;;;;5071111;28;20168;-52
2023/10/07 00:54:01;;;;;;;2.65;1.65;;;20.60;36.80;;;;;;5072232;28;20919;-52
2023/10/07 00:56:33;;;;;;;2.67;1.50;;;20.60;36.80;;;;;;5072144;28;20238;-51
2023/10/07 00:59:07;;;;;;;3.00;1.30;;;20.70;36.90;;;;;;5072345;28;20449;-52
2023/10/07 01:01:37;;;;;;;3.00;1.70;;;20.70;36.90;;;;;;5072643;28;20406;-54
2023/10/07 01:04:06;;;;;;;1.60;1.35;;;20.70;36.90;;;;;;5072012;28;20188;-52
2023/10/07 01:06:32;;;;;;;2.10;1.27;;;20.60;36.90;;;;;;5072759;28;20198;-51
2023/10/07 01:09:07;;;;;;;1.38;1.20;;;20.60;36.90;;;;;;5072244;28;20427;-54
2023/10/07 01:11:38;;;;;;;2.45;1.40;;;20.50;37.10;;;;;;5072647;28;20187;-54
2023/10/07 01:14:05;;;;;;;1.67;1.10;;;20.50;37.20;;;;;;5072456;28;20200;-52
2023/10/07 01:19:29;;;;;;;1.97;1.10;;;20.50;37.20;;;;;;5072135;28;20188;-54
2023/10/07 01:21:55;;;;;;;2.95;1.80;;;20.50;37.00;;;;;;5072243;28;20449;-52
2023/10/07 01:24:45;;;;;;;1.60;1.27;;;20.50;37.10;;;;;;5072349;28;20175;-52
2023/10/07 01:30:34;;;;;;;1.73;1.43;;;20.50;36.60;;;;;;5072056;28;20204;-52
2023/10/07 01:35:38;;;;;;;6.45;1.80;;;20.40;36.60;;;;;;5089616;28;20552;-55
2023/10/07 01:38:07;;;;;;;2.90;1.57;;;20.40;37.20;;;;;;5072215;28;20317;-51
2023/10/07 01:43:16;;;;;;;2.60;1.58;;;20.50;36.80;;;;;;5071774;28;20176;-53
2023/10/07 01:45:42;;;;;;;2.70;1.33;;;20.50;36.60;;;;;;5071800;28;20531;-52
2023/10/07 01:48:07;;;;;;;2.50;1.60;;;20.50;36.70;;;;;;5070391;28;20937;-54
2023/10/07 01:50:40;;;;;;;1.80;1.70;;;20.50;37.20;;;;;;5071803;28;20415;-50
2023/10/07 01:53:11;;;;;;;2.83;1.77;;;20.60;37.20;;;;;;5071962;28;20414;-50
2023/10/07 01:55:42;;;;;;;2.30;1.65;;;20.50;37.40;;;;;;5072029;28;20257;-52
2023/10/07 01:58:16;;;;;;;10.00;1.95;;;20.50;37.50;;;;;;5072098;28;20193;-52
2023/10/07 02:00:45;;;;;;;2.67;1.30;;;20.50;37.00;;;;;;5071986;28;20203;-52
2023/10/07 02:03:24;;;;;;;12.02;1.88;;;20.40;37.10;;;;;;5070363;28;20188;-53
2023/10/07 02:05:50;;;;;;;7.97;2.17;;;20.40;37.10;;;;;;5071797;28;20180;-48
2023/10/07 02:08:23;;;;;;;2.00;1.42;;;20.30;37.20;;;;;;5072016;28;20653;-51
2023/10/07 02:10:57;;;;;;;2.88;1.77;;;20.40;37.10;;;;;;5071874;28;20172;-51
2023/10/07 02:13:24;;;;;;;2.20;1.40;;;20.40;37.10;;;;;;5071410;28;20215;-52
2023/10/07 02:15:57;;;;;;;4.65;1.48;;;20.40;37.10;;;;;;5071536;28;20204;-52
2023/10/07 02:18:27;;;;;;;2.05;1.40;;;20.40;37.00;;;;;;5071410;28;20193;-49
2023/10/07 02:21:05;;;;;;;2.30;1.92;;;20.40;37.40;;;;;;5074917;28;20168;-50
2023/10/07 02:26:27;;;;;;;2.83;1.73;;;20.40;37.80;;;;;;5075669;28;20480;-48
2023/10/07 02:28:53;;;;;;;5.35;1.95;;;20.30;37.30;;;;;;5075565;28;20196;-50
2023/10/07 02:31:20;;;;;;;4.90;2.40;;;20.40;37.20;;;;;;5075447;28;20187;-53
2023/10/07 02:33:51;;;;;;;3.20;1.50;;;20.40;37.20;;;;;;5075207;28;20407;-53
2023/10/07 02:36:36;;;;;;;2.70;2.30;;;20.40;37.30;;;;;;5074945;28;20680;-52
2023/10/07 02:39:27;;;;;;;2.00;1.23;;;20.30;37.30;;;;;;5074748;28;20192;-53
2023/10/07 02:41:51;;;;;;;3.05;2.30;;;20.40;37.40;;;;;;5074482;28;20180;-52
2023/10/07 02:44:27;;;;;;;3.17;1.60;;;20.30;37.40;;;;;;5074591;28;20172;-51
2023/10/07 02:46:53;;;;;;;4.28;2.10;;;20.30;37.30;;;;;;5075187;28;20257;-54
2023/10/07 02:49:20;;;;;;;2.95;1.73;;;;;;;;;;5074902;28;20271;-53
2023/10/07 02:51:55;;;;;;;2.30;1.95;;;20.30;37.50;;;;;;5074645;28;20253;-52
2023/10/07 02:54:21;;;;;;;1.80;1.25;;;20.30;37.40;;;;;;5074608;28;20172;-51
2023/10/07 02:56:55;;;;;;;2.90;1.58;;;20.30;37.60;;;;;;5074834;28;20296;-51
2023/10/07 02:59:28;;;;;;;3.42;1.80;;;20.20;37.50;;;;;;5074961;28;20271;-53
2023/10/07 03:02:20;;;;;;;3.55;1.63;;;20.20;37.80;;;;;;5074382;28;20184;-51
2023/10/07 03:08:01;;;;;;;3.40;1.52;;;20.10;37.70;;;;;;5090181;28;20684;-50
2023/10/07 03:12:57;;;;;;;2.53;1.70;;;20.20;37.70;;;;;;5074268;28;20547;-53
2023/10/07 03:18:04;;;;;;;2.00;1.25;;;20.20;37.50;;;;;;5074285;28;20161;-52
2023/10/07 03:23:17;;;;;;;1.97;1.43;;;20.20;37.60;;;;;;5073639;28;20200;-49
2023/10/07 03:28:19;;;;;;;2.90;1.60;;;20.10;37.60;;;;;;5074007;28;20562;-51
2023/10/07 03:30:53;;;;;;;2.72;2.00;;;20.10;37.70;;;;;;5073254;28;20222;-51
2023/10/07 03:33:24;;;;;;;3.38;1.35;;;20.00;37.70;;;;;;5073497;28;20637;-54
2023/10/07 03:38:25;;;;;;;6.27;2.13;;;;;;;;;;5073635;28;20181;-53
2023/10/07 03:40:55;;;;;;;4.78;1.50;;;;;;;;;;5073642;28;20392;-53
2023/10/07 03:43:28;;;;;;;4.68;1.88;;;;;;;;;;5072099;28;20291;-51
2023/10/07 03:45:54;;;;;;;4.28;1.75;;;;;;;;;;5072244;28;20185;-51
2023/10/07 03:48:23;;;;;;;2.28;1.40;;;;;;;;;;5073385;28;20200;-52
2023/10/07 03:51:05;;;;;;;5.63;1.98;;;;;;;;;;5073337;28;20165;-52
2023/10/07 03:53:44;;;;;;;21.23;3.75;;;20.30;37.10;;;;;;5073279;28;20221;-52
2023/10/07 03:56:17;;;;;;;2.60;1.85;;;20.30;37.40;;;;;;5073208;28;20291;-51
2023/10/07 03:58:43;;;;;;;10.18;1.77;;;20.20;37.40;;;;;;5073209;28;20188;-50
2023/10/07 04:01:22;;;;;;;2.17;1.77;;;20.20;37.30;;;;;;5071944;28;20241;-50
2023/10/07 04:03:49;;;;;;;2.75;1.63;;;20.20;37.30;;;;;;5072987;28;20184;-53
2023/10/07 04:06:20;;;;;;;3.72;2.22;;;20.30;37.20;;;;;;5073092;28;20180;-50
2023/10/07 04:08:52;;;;;;;4.68;1.85;;;20.30;37.20;;;;;;5072882;28;20600;-51
2023/10/07 04:11:19;;;;;;;2.22;1.25;;;20.30;37.50;;;;;;5073058;28;20551;-53
2023/10/07 04:13:46;;;;;;;2.15;1.20;;;20.20;37.60;;;;;;5072952;28;20183;-53
2023/10/07 04:16:25;;;;;;;3.30;2.72;;;20.20;37.30;;;;;;5071545;28;20204;-50
2023/10/07 04:18:53;;;;;;;2.90;1.53;;;20.20;37.40;;;;;;5072856;28;20203;-53
2023/10/07 04:21:21;;;;;;;3.75;1.90;;;20.10;37.40;;;;;;5072669;28;20408;-51
2023/10/07 04:23:47;;;;;;;2.40;1.35;;;20.10;37.60;;;;;;5072635;28;20180;-50
2023/10/07 04:26:19;;;;;;;6.13;2.00;;;20.10;37.40;;;;;;5072830;28;20169;-53
2023/10/07 04:28:53;;;;;;;2.37;2.03;;;20.10;37.40;;;;;;5072675;28;20843;-50
2023/10/07 04:31:29;;;;;;;2.00;1.10;;;20.10;37.50;;;;;;5072651;28;20415;-52
2023/10/07 04:34:02;;;;;;;2.25;1.63;;;20.10;37.70;;;;;;5072408;28;20766;-53
2023/10/07 04:36:37;;;;;;;1.73;1.10;;;20.00;37.50;;;;;;5072499;28;20203;-49
2023/10/07 04:39:18;;;;;;;1.85;1.15;;;20.00;38.00;;;;;;5072572;28;20436;-51
2023/10/07 04:41:43;;;;;;;3.90;1.48;;;20.00;37.60;;;;;;5072453;28;20258;-53
2023/10/07 04:47:04;;;;;;;3.67;1.75;;;20.00;38.20;;;;;;5071043;28;20184;-50
2023/10/07 04:49:36;;;;;;;5.65;3.25;;;20.00;37.70;;;;;;5072465;28;20614;-53
2023/10/07 04:52:05;;;;;;;1.85;1.35;;;19.90;37.70;;;;;;5072385;28;20530;-51
2023/10/07 04:54:35;;;;;;;2.10;1.25;;;19.90;38.90;;;;;;5072079;28;20215;-53
2023/10/07 04:57:02;;;;;;;4.68;2.28;;;19.90;38.00;;;;;;5072203;28;20204;-51
2023/10/07 04:59:29;;;;;;;2.28;1.30;;;19.90;38.00;;;;;;5072160;28;20189;-50
2023/10/07 05:02:01;;;;;;;1.92;1.58;;;19.90;37.90;;;;;;5072141;28;20226;-54
2023/10/07 05:04:28;;;;;;;5.38;1.58;;;19.80;38.00;;;;;;5071862;28;20693;-52
2023/10/07 05:06:54;;;;;;;1.65;0.90;;;19.80;38.70;;;;;;5070811;28;20176;-51
2023/10/07 05:09:21;;;;;;;3.33;1.65;;;19.70;38.40;;;;;;5071981;28;20685;-53
2023/10/07 05:11:48;;;;;;;3.67;1.83;;;19.70;38.30;;;;;;5072243;28;20168;-51
2023/10/07 05:14:18;;;;;;;1.77;1.42;;;19.80;38.30;;;;;;5071889;28;20213;-51
2023/10/07 05:16:47;;;;;;;2.75;1.48;;;19.80;39.00;;;;;;5071877;28;20681;-53
2023/10/07 05:19:21;;;;;;;1.80;1.33;;;19.70;38.30;;;;;;5071638;28;20200;-51
2023/10/07 05:21:58;;;;;;;5.40;2.47;;;19.70;38.30;;;;;;5072479;28;20175;-55
2023/10/07 05:24:28;;;;;;;1.58;1.13;;;19.70;38.90;;;;;;5091696;28;20633;-53
2023/10/07 05:26:55;;;;;;;1.98;1.20;;;19.70;38.80;;;;;;5076574;28;20185;-51
2023/10/07 05:29:21;;;;;;;1.85;1.17;;;19.80;38.60;;;;;;5071589;28;20236;-52
2023/10/07 05:31:48;;;;;;;2.58;1.60;;;19.70;38.70;;;;;;5071708;28;20176;-53
2023/10/07 05:34:15;;;;;;;1.90;1.50;;;19.60;38.20;;;;;;5088110;28;20183;-54
2023/10/07 05:36:40;;;;;;;1.40;1.10;;;19.70;38.80;;;;;;5071800;28;20204;-51
2023/10/07 05:39:08;;;;;;;1.27;1.00;;;19.70;38.90;;;;;;5071574;28;20204;-50
2023/10/07 05:41:39;;;;;;;2.17;1.50;;;19.70;38.50;;;;;;5071658;28;20222;-53
2023/10/07 05:44:05;;;;;;;1.50;0.93;;;19.60;39.00;;;;;;5071657;28;20226;-53
2023/10/07 05:46:32;;;;;;;2.75;1.67;;;19.60;38.50;;;;;;5091782;28;20183;-52
2023/10/07 05:48:59;;;;;;;1.77;1.45;;;19.60;38.40;;;;;;5091603;28;20203;-54
2023/10/07 05:51:25;;;;;;;1.63;1.27;;;19.60;38.50;;;;;;5091545;28;20211;-50
2023/10/07 05:53:51;;;;;;;4.13;1.75;;;19.60;38.50;;;;;;5091908;28;20595;-51
2023/10/07 05:56:17;;;;;;;3.97;1.83;;;19.60;38.80;;;;;;5095616;28;20199;-54
2023/10/07 05:58:45;;;;;;;2.40;1.50;;;19.60;39.30;;;;;;5095813;28;20429;-53
2023/10/07 06:01:14;;;;;;;2.35;1.42;;;19.60;39.30;;;;;;5095544;28;20180;-51
2023/10/07 06:03:42;;;;;;;3.85;2.20;;;19.60;39.30;;;;;;5095301;28;20212;-54
2023/10/07 06:06:09;;;;;;;3.50;1.58;;;19.70;38.90;;;;;;5095678;28;20187;-52
2023/10/07 06:08:35;;;;;;;1.30;0.82;;;19.70;39.50;;;;;;5095551;28;20202;-51
2023/10/07 06:11:02;;;;;;;2.87;1.30;;;19.70;38.90;;;;;;5095434;28;20180;-56
2023/10/07 06:13:28;;;;;;;7.15;1.98;;;;;;;;;;5075111;28;20176;-52
2023/10/07 06:15:56;;;;;;;9.65;2.83;;;19.80;38.40;;;;;;5074940;28;20196;-51
2023/10/07 06:18:22;;;;;;;11.02;2.28;;;;;;;;;;5094094;28;20207;-50
2023/10/07 06:20:52;;;;;;;13.02;2.28;;;19.80;38.70;;;;;;5095229;28;20241;-55
2023/10/07 06:23:24;;;;;;;17.90;2.35;;;19.80;38.20;;;;;;5076287;28;20181;-53
2023/10/07 06:25:51;;;;;;;12.65;2.35;;;;;;;;;;5089826;28;20180;-51
2023/10/07 06:31:55;;;;;;;15.13;2.40;;;19.80;37.90;;;;;;5095326;28;20187;-51
2023/10/07 06:36:30;;;;;;;11.50;1.63;;;19.80;38.30;;;;;;5094793;28;20196;-51
2023/10/07 06:38:58;;;;;;;13.75;1.95;;;19.90;37.50;;;;;;5094781;28;20192;-51
2023/10/07 06:41:28;;;;;;;14.85;1.85;;;20.10;37.50;;;;;;5092035;28;20188;-54
2023/10/07 06:44:02;;;;;;;15.52;2.03;;;20.20;37.00;;;;;;5074678;28;20177;-52
2023/10/07 06:46:41;;;;;;;22.55;2.22;;;20.30;37.30;;;;;;5074582;28;20177;-52
2023/10/07 06:49:18;;;;;;;27.38;2.35;;;;;;;;;;5073357;28;20291;-52
2023/10/07 06:51:45;;;;;;;18.27;1.77;;;20.60;36.90;;;;;;5094668;28;20253;-53
2023/10/07 06:54:14;;;;;;;32.75;2.80;;;;;;;;;;5094612;28;20207;-53
2023/10/07 06:56:39;;;;;;;20.37;1.97;;;20.80;36.10;;;;;;5094397;28;20191;-51
2023/10/07 06:59:07;;;;;;;1.50;1.00;;;20.90;35.80;;;;;;5094421;28;20521;-51
2023/10/07 07:01:51;;;;;;;1.60;1.00;;;20.90;35.90;;;;;;5094234;28;20414;-53
2023/10/07 07:04:19;;;;;;;1.30;1.00;;;21.00;36.30;;;;;;5092315;28;20845;-52
2023/10/07 07:06:57;;;;;;;2.97;1.23;;;21.40;35.20;;;;;;5078653;28;20180;-54
2023/10/07 07:09:41;;;;;;;2.60;1.90;;;21.50;35.00;;;;;;5074953;28;20243;-55
2023/10/07 07:12:11;;;;;;;2.40;1.40;;;21.60;34.90;;;;;;5073912;28;20468;-51
2023/10/07 07:14:41;;;;;;;5.90;2.28;;;21.70;34.30;;;;;;5073792;28;21097;-57
2023/10/07 07:22:50;;;;;;;13.10;1.70;;;;;;;;;;5078775;28;20406;-51
2023/10/07 07:25:30;;;;;;;9.03;1.53;;;;;;;;;;5071974;28;20407;-54
2023/10/07 07:27:58;;;;;;;9.63;2.27;;;;;;;;;;5074061;28;20406;-53
2023/10/07 07:30:30;;;;;;;9.93;2.03;;;21.40;34.30;;;;;;5090380;28;20930;-52
2023/10/07 07:33:06;;;;;;;20.87;3.60;;;21.40;34.90;;;;;;5072185;28;20518;-53
2023/10/07 07:35:43;;;;;;;15.83;2.47;;;;;;;;;;5094086;28;20772;-55
2023/10/07 07:38:29;;;;;;;16.17;2.57;;;21.40;34.10;;;;;;5093636;28;20988;-52
2023/10/07 07:41:05;;;;;;;10.00;1.50;;;;;;;;;;5093928;28;20479;-53
2023/10/07 07:43:33;;;;;;;14.73;3.23;;;21.20;34.20;;;;;;5093522;28;20904;-51
2023/10/07 07:46:29;;;;;;;12.13;2.30;;;;;;;;;;5093507;28;20417;-52
2023/10/07 07:49:06;;;;;;;11.27;2.03;;;;;;;;;;5068047;28;20439;-54
2023/10/07 07:51:37;;;;;;;13.57;1.93;;;21.10;34.80;;;;;;5065068;28;21105;-54
2023/10/07 07:54:05;;;;;;;8.83;1.83;;;;;;;;;;5073211;28;20421;-52
2023/10/07 07:56:31;;;;;;;10.07;2.70;;;21.00;34.70;;;;;;5093321;28;20468;-54
2023/10/07 07:58:57;;;;;;;14.63;2.60;;;21.00;36.30;;;;;;5093311;28;20463;-54
2023/10/07 08:01:28;;;;;;;16.10;2.43;;;21.00;37.30;;;;;;5093013;28;20761;-52
2023/10/07 08:03:55;;;;;;;7.90;1.17;;;20.90;37.40;;;;;;5077758;28;20473;-52
2023/10/07 08:06:25;;;;;;;12.67;2.17;;;;;;;;;;5072722;28;20430;-53
2023/10/07 08:08:53;;;;;;;13.67;2.33;;;20.60;37.90;;;;;;5073046;28;20431;-51
2023/10/07 08:11:19;;;;;;;10.50;1.63;;;20.50;38.20;;;;;;5072841;28;20450;-52
2023/10/07 08:13:45;;;;;;;10.10;1.40;;;20.50;38.50;;;;;;5086490;28;20911;-52
2023/10/07 08:16:20;;;;;;;16.70;2.07;;;20.50;38.60;;;;;;5092864;28;20458;-54
2023/10/07 08:18:54;;;;;;;19.02;2.15;;;20.50;39.90;;;;;;5091514;28;20437;-52
2023/10/07 08:21:28;;;;;;;18.85;3.60;;;20.50;41.50;;;;;;5093181;28;20179;-55
2023/10/07 08:23:54;;;;;;;15.43;1.92;;;;;;;;;;5092922;28;20163;-55
2023/10/07 08:26:22;;;;;;;17.42;2.70;;;;;;;;;;5092802;28;20255;-51
2023/10/07 08:31:36;;;;;;;15.80;2.03;;;20.10;42.00;;;;;;5090255;28;20258;-53
2023/10/07 08:36:36;;;;;;;14.30;3.43;;;20.10;41.50;;;;;;5072468;28;20473;-51
2023/10/07 08:39:06;;;;;;;21.40;2.43;;;20.20;42.60;;;;;;5088476;28;20425;-53
2023/10/07 08:41:32;;;;;;;17.02;2.72;;;20.30;42.80;;;;;;5080528;28;20905;-53
2023/10/07 08:44:15;;;;;;;12.70;2.30;;;;;;;;;;5087597;28;20209;-52
2023/10/07 08:46:54;;;;;;;11.20;2.70;;;;;;;;;;5079421;28;20402;-54
2023/10/07 08:49:26;;;;;;;16.10;2.00;;;20.30;41.40;;;;;;5072299;28;20301;-51
2023/10/07 08:51:54;;;;;;;14.53;1.73;;;;;;;;;;5072217;28;20546;-52
2023/10/07 08:54:26;;;;;;;14.05;3.13;;;20.50;41.20;;;;;;5071982;28;20406;-53
2023/10/07 08:56:57;;;;;;;17.25;2.60;;;20.50;41.80;;;;;;5086741;28;20736;-52
2023/10/07 08:59:30;;;;;;;19.47;2.50;;;;;;;;;;5091986;28;20666;-54
2023/10/07 09:01:57;;;;;;;18.38;2.05;;;;;;;;;;5092245;28;20428;-52
2023/10/07 09:04:25;;;;;;;15.27;2.15;;;20.60;41.00;;;;;;5091805;28;20669;-52
2023/10/07 09:06:51;;;;;;;15.27;1.88;;;;;;;;;;5090826;28;20569;-54
2023/10/07 09:09:39;;;;;;;15.47;2.13;;;20.80;41.00;;;;;;5090726;28;20196;-52
2023/10/07 09:12:15;;;;;;;18.00;2.63;;;20.90;40.80;;;;;;5071918;28;20488;-55
2023/10/07 09:14:55;;;;;;;16.47;1.90;;;21.00;41.20;;;;;;5071821;28;20207;-51
2023/10/07 09:17:26;;;;;;;15.95;2.05;;;;;;;;;;5072172;28;21199;-54
2023/10/07 09:19:53;;;;;;;16.80;2.85;;;21.00;40.10;;;;;;5070659;28;20593;-54
2023/10/07 09:22:32;;;;;;;16.93;2.17;;;21.00;40.40;;;;;;5071946;28;20182;-51
2023/10/07 09:25:17;;;;;;;18.60;2.57;;;20.90;40.60;;;;;;5071914;28;20468;-54
2023/10/07 09:27:43;;;;;;;26.10;2.87;;;;;;;;;;5071916;28;20444;-51
2023/10/07 09:32:58;;;;;;;13.00;1.33;;;21.00;41.00;;;;;;5071801;28;20537;-56
2023/10/07 09:35:25;;;;;;;13.50;2.80;;;;;;;;;;5071697;28;20413;-52
2023/10/07 09:37:53;;;;;;;14.53;2.23;;;;;;;;;;5071672;28;20507;-53
2023/10/07 09:43:17;;;;;;;27.53;3.80;;;21.10;39.50;;;;;;5071537;28;20768;-52
2023/10/07 09:45:46;;;;;;;13.40;1.73;;;;;;;;;;5071743;28;20919;-54
2023/10/07 09:48:15;;;;;;;19.67;2.33;;;;;;;;;;5071528;28;20481;-49
2023/10/07 09:50:44;;;;;;;16.77;2.80;;;;;;;;;;5071872;28;20399;-52
2023/10/07 09:53:37;;;;;;;25.07;2.80;;;21.50;39.40;;;;;;5071531;28;21254;-54
2023/10/07 09:56:29;;;;;;;13.63;2.17;;;21.60;39.10;;;;;;5071659;28;20508;-54
2023/10/07 09:59:17;;;;;;;23.77;3.13;;;21.70;39.00;;;;;;5070324;28;20434;-51
2023/10/07 10:01:55;;;;;;;23.00;2.30;;;;;;;;;;5071592;28;20472;-52
2023/10/07 10:04:43;;;;;;;19.43;2.50;;;21.90;38.40;;;;;;5071393;28;20521;-54
2023/10/07 10:07:42;;;;;;;22.80;2.57;;;21.90;38.50;;;;;;5071500;28;20754;-52
2023/10/07 10:10:13;;;;;;;14.50;2.13;;;;;;;;;;5071432;28;20426;-53
2023/10/07 10:13:06;;;;;;;23.17;2.80;;;22.00;38.40;;;;;;5071533;28;20413;-52
2023/10/07 10:18:05;;;;;;;17.10;1.97;;;22.00;38.30;;;;;;5071302;28;20499;-53
2023/10/07 10:20:45;;;;;;;19.07;2.27;;;22.00;38.30;;;;;;5071548;28;20433;-54
2023/10/07 10:23:19;;;;;;;31.30;3.97;;;;;;;;;;5071088;28;20416;-51
2023/10/07 10:25:52;;;;;;;20.07;2.87;;;;;;;;;;5071251;28;20410;-49
2023/10/07 10:28:27;;;;;;;14.43;1.53;;;22.10;38.50;;;;;;5071374;28;20500;-54
2023/10/07 10:30:56;;;;;;;15.73;1.63;;;22.10;38.70;;;;;;5071183;28;20774;-51
2023/10/07 10:33:25;;;;;;;30.50;2.83;;;22.20;38.40;;;;;;5070941;28;20411;-52
2023/10/07 10:35:52;;;;;;;15.67;1.63;;;;;;;;;;5071105;28;20952;-52
2023/10/07 10:38:19;;;;;;;22.33;3.13;;;;;;;;;;5071376;28;20513;-54
2023/10/07 10:40:46;;;;;;;23.20;3.03;;;22.00;38.60;;;;;;5071067;28;20403;-54
2023/10/07 10:43:24;;;;;;;40.03;4.47;;;22.00;38.50;;;;;;5074652;28;20407;-51
2023/10/07 10:46:06;;;;;;;38.13;3.97;;;21.90;38.90;;;;;;5074698;28;20916;-52
2023/10/07 10:48:38;;;;;;;38.70;4.47;;;21.90;38.70;;;;;;5073944;28;20969;-55
2023/10/07 10:51:09;;;;;;;18.60;3.00;;;;;;;;;;5074374;28;20476;-52
2023/10/07 10:53:40;;;;;;;16.77;2.93;;;22.00;39.10;;;;;;5074581;28;20490;-54
2023/10/07 10:56:09;;;;;;;18.13;2.23;;;22.10;39.00;;;;;;5073134;28;20467;-52
2023/10/07 10:58:39;;;;;;;17.03;2.03;;;;;;;;;;5074407;28;20434;-54
2023/10/07 11:01:05;;;;;;;17.07;2.00;;;22.10;39.20;;;;;;5074341;28;20965;-50
2023/10/07 11:03:36;;;;;;;20.80;3.43;;;22.20;39.10;;;;;;5074140;28;20427;-52
2023/10/07 11:06:06;;;;;;;14.33;2.37;;;;;;;;;;5073255;28;20472;-55
2023/10/07 11:08:33;;;;;;;17.50;2.37;;;22.20;39.20;;;;;;5074198;28;20918;-52
2023/10/07 11:11:00;;;;;;;10.53;1.33;;;;;;;;;;5074291;28;20498;-53
2023/10/07 11:13:29;;;;;;;19.50;3.53;;;22.10;39.80;;;;;;5074024;28;20477;-52
2023/10/07 11:16:09;;;;;;;34.10;3.47;;;;;;;;;;5072773;28;20450;-51
2023/10/07 11:18:37;;;;;;;27.93;2.83;;;22.20;39.30;;;;;;5072133;28;20513;-53
2023/10/07 11:21:05;;;;;;;28.57;3.20;;;;;;;;;;5072125;28;20402;-50
2023/10/07 11:23:32;;;;;;;24.00;2.73;;;;;;;;;;5072062;28;20407;-51
2023/10/07 11:25:58;;;;;;;24.90;2.97;;;;;;;;;;5072059;28;20804;-52
2023/10/07 11:28:26;;;;;;;28.70;3.83;;;;;;;;;;5071728;28;20931;-54
2023/10/07 11:30:52;;;;;;;14.67;1.70;;;22.40;39.70;;;;;;5072503;28;20395;-52
2023/10/07 11:33:19;;;;;;;18.33;2.40;;;22.30;39.50;;;;;;5073628;28;20804;-52
2023/10/07 11:36:06;;;;;;;20.23;2.47;;;;;;;;;;5073768;28;20430;-53
2023/10/07 11:38:32;;;;;;;18.70;2.27;;;22.30;39.70;;;;;;5073660;28;20418;-54
2023/10/07 11:40:59;;;;;;;20.30;2.40;;;;;;;;;;5073566;28;20505;-52
2023/10/07 11:43:27;;;;;;;16.00;1.80;;;;;;;;;;5073722;28;20423;-55
2023/10/07 11:45:53;;;;;;;14.40;1.90;;;;;;;;;;5073628;28;20414;-52
2023/10/07 11:48:21;;;;;;;16.53;1.97;;;;;;;;;;5073537;28;20422;-53
2023/10/07 11:50:47;;;;;;;31.07;3.40;;;;;;;;;;5073330;28;20406;-53
2023/10/07 11:53:14;;;;;;;26.40;2.77;;;;;;;;;;5072165;28;20409;-54
2023/10/07 11:55:40;;;;;;;13.93;1.90;;;;;;;;;;5073230;28;20406;-51
2023/10/07 11:58:07;;;;;;;13.10;1.97;;;;;;;;;;5073241;28;20970;-51
2023/10/07 12:00:37;;;;;;;16.07;2.47;;;;;;;;;;5073309;28;20410;-53
2023/10/07 12:03:07;;;;;;;25.60;4.00;;;;;;;;;;5072861;28;20901;-52
2023/10/07 12:05:38;;;;;;;13.97;1.97;;;22.70;39.90;;;;;;5073167;28;20438;-50
2023/10/07 12:08:04;;;;;;;20.13;2.50;;;22.70;40.10;;;;;;5072984;28;20427;-53
2023/10/07 12:10:39;;;;;;;30.70;3.13;;;22.80;39.90;;;;;;5071855;28;20904;-50
2023/10/07 12:13:07;;;;;;;38.03;3.93;;;;;;;;;;5071822;28;20966;-51
2023/10/07 12:15:34;;;;;;;16.87;2.00;;;22.80;39.90;;;;;;5072730;28;20399;-55
2023/10/07 12:18:02;;;;;;;24.13;2.33;;;;;;;;;;5072817;28;20803;-51
2023/10/07 12:20:28;;;;;;;18.63;2.37;;;;;;;;;;5072739;28;20490;-57
2023/10/07 12:22:56;;;;;;;15.13;2.00;;;22.80;39.90;;;;;;5072700;28;20402;-53
2023/10/07 12:25:22;;;;;;;12.87;2.10;;;;;;;;;;5072759;28;20449;-52
2023/10/07 12:27:48;;;;;;;11.90;1.83;;;;;;;;;;5072786;28;20494;-56
2023/10/07 12:30:20;;;;;;;2.53;1.70;;;22.80;40.00;;;;;;5072588;28;20450;-54
2023/10/07 12:32:48;;;;;;;3.50;2.30;;;22.90;39.70;;;;;;5072639;28;20407;-50
2023/10/07 12:35:15;;;;;;;2.60;2.40;;;23.00;40.40;;;;;;5072387;28;20417;-51
2023/10/07 12:37:46;;;;;;;7.53;1.90;;;23.00;39.60;;;;;;5072642;28;20486;-50
2023/10/07 12:40:14;;;;;;;7.40;1.97;;;23.10;39.50;;;;;;5072524;28;20790;-51
2023/10/07 12:42:45;;;;;;;4.53;1.87;;;23.10;39.40;;;;;;5072499;28;20418;-53
2023/10/07 12:45:11;;;;;;;7.90;2.10;;;;;;;;;;5072212;28;20442;-51
2023/10/07 12:47:51;;;;;;;12.07;2.30;;;;;;;;;;5072272;28;20402;-52
2023/10/07 12:50:20;;;;;;;16.57;2.10;;;23.20;39.40;;;;;;5072551;28;20403;-53
2023/10/07 12:52:56;;;;;;;15.20;2.03;;;;;;;;;;5072382;28;20916;-52
2023/10/07 12:55:23;;;;;;;14.97;1.53;;;;;;;;;;5072193;28;20424;-53
2023/10/07 12:57:52;;;;;;;17.47;2.63;;;;;;;;;;5072123;28;20523;-53
2023/10/07 13:00:52;;;;;;;16.97;2.10;;;23.20;39.10;;;;;;5072248;28;20399;-55
2023/10/07 13:03:12;;;;;;;32.20;4.10;;;;;;;;;;5071558;28;20442;-52
2023/10/07 13:05:38;;;;;;;20.63;2.73;;;;;;;;;;5071745;28;20893;-53
2023/10/07 13:08:18;;;;;;;17.00;2.13;;;;;;;;;;5072012;28;20501;-55
2023/10/07 13:10:45;;;;;;;16.77;3.37;;;;;;;;;;5072107;28;20455;-50
2023/10/07 13:13:14;;;;;;;29.43;3.30;;;23.20;39.10;;;;;;5072109;28;20403;-54
2023/10/07 13:15:43;;;;;;;20.37;2.57;;;23.20;38.60;;;;;;5072147;28;20469;-51
2023/10/07 13:18:09;;;;;;;12.67;1.80;;;;;;;;;;5071967;28;20418;-52
2023/10/07 13:20:38;;;;;;;19.23;2.70;;;;;;;;;;5072065;28;20889;-54
2023/10/07 13:23:10;;;;;;;39.80;4.30;;;23.10;39.50;;;;;;5071653;28;20416;-52
2023/10/07 13:25:36;;;;;;;17.83;2.50;;;23.00;39.50;;;;;;5072199;28;20826;-53
2023/10/07 13:28:02;;;;;;;27.27;3.40;;;23.10;39.60;;;;;;5071923;28;20438;-54
2023/10/07 13:30:30;;;;;;;25.03;2.57;;;23.10;39.50;;;;;;5070583;28;20176;-52
2023/10/07 13:32:56;;;;;;;13.30;2.13;;;23.10;39.10;;;;;;5070495;28;20421;-52
2023/10/07 13:35:24;;;;;;;19.73;2.60;;;;;;;;;;5071577;28;20773;-54
2023/10/07 13:37:52;;;;;;;15.07;2.57;;;;;;;;;;5071876;28;20458;-51
2023/10/07 13:40:19;;;;;;;16.40;2.90;;;23.00;39.70;;;;;;5071942;28;20477;-53
2023/10/07 13:42:47;;;;;;;14.20;1.73;;;;;;;;;;5071840;28;20408;-55
2023/10/07 13:45:21;;;;;;;16.47;1.97;;;;;;;;;;5071659;28;20406;-54
2023/10/07 13:47:48;;;;;;;12.00;2.20;;;23.10;39.60;;;;;;5071687;28;20470;-52
2023/10/07 13:50:15;;;;;;;25.83;2.17;;;;;;;;;;5071640;28;20506;-55
2023/10/07 13:52:58;;;;;;;12.70;1.50;;;23.10;40.70;;;;;;5071601;28;20411;-53
2023/10/07 13:58:14;;;;;;;19.50;2.37;;;;;;;;;;5071538;28;20436;-52
2023/10/07 14:00:53;;;;;;;17.77;2.00;;;23.70;40.40;;;;;;5071806;28;20445;-54
2023/10/07 14:03:20;;;;;;;19.27;1.97;;;;;;;;;;5071452;28;20438;-53
2023/10/07 14:05:51;;;;;;;16.67;1.97;;;;;;;;;;5071610;28;20410;-54
2023/10/07 14:08:21;;;;;;;19.77;1.93;;;23.10;40.30;;;;;;5071471;28;20458;-54
2023/10/07 14:10:50;;;;;;;16.63;1.80;;;;;;;;;;5071334;28;20414;-51
2023/10/07 14:13:19;;;;;;;27.90;2.77;;;23.20;40.10;;;;;;5071604;28;20455;-51
2023/10/07 14:15:49;;;;;;;20.73;2.30;;;;;;;;;;5073177;28;20408;-55
2023/10/07 14:18:21;;;;;;;14.70;1.70;;;;;;;;;;5075334;28;20446;-52
2023/10/07 14:20:53;;;;;;;18.90;1.83;;;;;;;;;;5075168;28;20832;-54
2023/10/07 14:23:20;;;;;;;27.53;2.77;;;23.40;39.40;;;;;;5074977;28;20405;-54
2023/10/07 14:25:51;;;;;;;12.87;1.53;;;;;;;;;;5075332;28;20407;-53
2023/10/07 14:28:20;;;;;;;16.37;1.83;;;23.50;39.50;;;;;;5074996;28;20800;-54
2023/10/07 14:30:52;;;;;;;9.13;1.37;;;23.50;39.40;;;;;;5075069;28;20411;-51